Time;durP1;ratioP1;P1;durP2;ratioP2;P2;SDS_P1;SDS_P2;PMS_P1;PMS_P2;Temp;Humidity;BMP_temperature;BMP_pressure;BME280_temperature;BME280_humidity;BME280_pressure;Samples;Min_cycle;Max_cycle;Signal;HPM_P1;HPM_P2
2023/08/26 00:02:08;;;;;;;11.85;10.40;;;15.20;99.90;;;;;;5078254;28;20047;-42
2023/08/26 00:04:34;;;;;;;13.18;11.18;;;15.10;99.90;;;;;;5078516;28;20078;-42
2023/08/26 00:07:00;;;;;;;14.18;10.35;;;15.10;99.90;;;;;;5078515;28;20040;-42
2023/08/26 00:09:26;;;;;;;11.77;9.82;;;15.10;99.90;;;;;;5078891;28;20035;-41
2023/08/26 00:11:53;;;;;;;12.13;10.60;;;15.10;99.90;;;;;;5078407;28;20526;-41
2023/08/26 00:14:19;;;;;;;14.07;11.35;;;15.20;99.90;;;;;;5066641;28;20051;-43
2023/08/26 00:16:45;;;;;;;14.77;11.52;;;15.20;99.90;;;;;;5063787;28;20559;-42
2023/08/26 00:19:11;;;;;;;11.55;10.50;;;15.10;99.90;;;;;;5055448;28;20447;-42
2023/08/26 00:21:37;;;;;;;13.00;10.15;;;15.20;99.90;;;;;;5076987;28;20047;-42
2023/08/26 00:24:04;;;;;;;12.13;10.02;;;15.10;99.90;;;;;;5057618;28;20048;-42
2023/08/26 00:26:30;;;;;;;11.35;9.55;;;15.10;99.90;;;;;;5064821;28;20410;-42
2023/08/26 00:28:56;;;;;;;14.50;10.27;;;15.10;99.90;;;;;;5064692;28;20525;-41
2023/08/26 00:31:24;;;;;;;12.57;10.27;;;15.00;99.90;;;;;;5077449;28;20194;-41
2023/08/26 00:33:50;;;;;;;10.70;9.18;;;15.00;99.90;;;;;;5076554;28;20418;-43
2023/08/26 00:36:16;;;;;;;10.73;9.73;;;14.90;99.90;;;;;;5077668;28;20059;-42
2023/08/26 00:38:42;;;;;;;14.25;10.95;;;15.00;99.90;;;;;;5078358;28;20364;-42
2023/08/26 00:41:07;;;;;;;13.23;10.88;;;15.00;99.90;;;;;;5077437;28;20572;-41
2023/08/26 00:43:37;;;;;;;12.43;10.55;;;15.00;99.90;;;;;;5077497;28;20297;-42
2023/08/26 00:46:03;;;;;;;14.38;10.52;;;14.90;99.90;;;;;;5050217;28;20052;-44
2023/08/26 00:48:29;;;;;;;10.95;9.48;;;14.80;99.90;;;;;;5059559;28;20040;-41
2023/08/26 00:50:55;;;;;;;12.27;10.60;;;14.80;99.90;;;;;;5076924;28;20044;-41
2023/08/26 00:53:21;;;;;;;12.10;10.55;;;14.90;99.90;;;;;;5053096;28;20045;-41
2023/08/26 00:55:47;;;;;;;11.65;10.27;;;14.90;99.90;;;;;;5064373;28;20044;-42
2023/08/26 00:58:15;;;;;;;14.60;10.32;;;14.90;99.90;;;;;;5077294;28;20092;-43
2023/08/26 01:00:42;;;;;;;11.57;10.35;;;14.70;99.90;;;;;;5064515;28;20044;-41
2023/08/26 01:03:08;;;;;;;12.45;10.23;;;14.80;99.90;;;;;;5077412;28;20513;-41
2023/08/26 01:05:34;;;;;;;10.65;9.52;;;14.70;99.90;;;;;;5076899;28;20040;-42
2023/08/26 01:08:02;;;;;;;14.05;10.88;;;14.60;99.90;;;;;;5077518;28;20072;-41
2023/08/26 01:10:52;;;;;;;11.93;10.75;;;14.60;99.90;;;;;;5078340;28;20087;-41
2023/08/26 01:13:25;;;;;;;11.65;9.98;;;14.60;99.90;;;;;;5077680;28;20048;-41
2023/08/26 01:15:52;;;;;;;13.27;10.90;;;14.50;99.90;;;;;;5053007;28;20119;-41
2023/08/26 01:18:19;;;;;;;12.40;11.02;;;14.50;99.90;;;;;;5067834;28;20063;-42
2023/08/26 01:20:45;;;;;;;12.65;10.52;;;14.40;99.90;;;;;;5061084;28;20360;-41
2023/08/26 01:23:20;;;;;;;10.57;9.43;;;14.40;99.90;;;;;;5069443;28;20486;-43
2023/08/26 01:25:46;;;;;;;11.05;9.65;;;14.40;99.90;;;;;;5075735;28;20106;-40
2023/08/26 01:28:13;;;;;;;12.18;10.75;;;14.30;99.90;;;;;;5077351;28;20040;-42
2023/08/26 01:30:39;;;;;;;15.40;10.32;;;14.30;99.90;;;;;;5077304;28;20095;-41
2023/08/26 01:33:17;;;;;;;11.77;9.77;;;14.30;99.90;;;;;;5076669;28;20135;-41
2023/08/26 01:35:47;;;;;;;15.68;11.02;;;14.20;99.90;;;;;;5076269;28;20063;-41
2023/08/26 01:38:16;;;;;;;14.52;10.75;;;14.20;99.90;;;;;;5067000;28;20483;-41
2023/08/26 01:40:47;;;;;;;14.00;9.93;;;14.10;99.90;;;;;;5060670;28;20083;-40
2023/08/26 01:43:13;;;;;;;10.85;9.45;;;14.10;99.90;;;;;;5077301;28;20344;-42
2023/08/26 01:45:39;;;;;;;12.20;10.27;;;14.10;99.90;;;;;;5050565;28;20059;-41
2023/08/26 01:48:04;;;;;;;12.02;10.70;;;14.10;99.90;;;;;;5076445;28;20036;-41
2023/08/26 01:50:30;;;;;;;12.23;11.02;;;14.10;99.90;;;;;;5077417;28;20082;-42
2023/08/26 01:52:56;;;;;;;11.48;10.18;;;14.20;99.90;;;;;;5037451;28;20365;-41
2023/08/26 01:55:21;;;;;;;11.52;10.40;;;14.00;99.90;;;;;;5073187;28;20482;-42
2023/08/26 01:57:47;;;;;;;12.35;11.00;;;14.10;99.90;;;;;;5076871;28;20371;-41
2023/08/26 02:00:13;;;;;;;15.65;11.40;;;14.00;99.90;;;;;;5074938;28;20043;-44
2023/08/26 02:02:39;;;;;;;14.82;12.07;;;14.00;99.90;;;;;;5051242;28;20401;-42
2023/08/26 02:05:05;;;;;;;12.85;11.18;;;13.90;99.90;;;;;;5054835;28;20068;-40
2023/08/26 02:07:30;;;;;;;14.02;11.15;;;13.90;99.90;;;;;;5053380;28;20048;-40
2023/08/26 02:09:56;;;;;;;16.17;12.25;;;13.80;99.90;;;;;;5073576;28;20396;-41
2023/08/26 02:12:22;;;;;;;14.75;10.85;;;13.90;99.90;;;;;;5076764;28;20495;-42
2023/08/26 02:14:47;;;;;;;12.95;11.63;;;13.80;99.90;;;;;;5060218;28;20076;-41
2023/08/26 02:17:13;;;;;;;11.82;10.63;;;13.80;99.90;;;;;;5056120;28;20041;-41
2023/08/26 02:19:39;;;;;;;18.48;11.38;;;13.80;99.90;;;;;;5044231;28;20436;-41
2023/08/26 02:22:04;;;;;;;12.05;10.80;;;13.80;99.90;;;;;;5055337;28;20048;-41
2023/08/26 02:24:31;;;;;;;12.13;10.65;;;13.70;99.90;;;;;;5073463;28;20402;-41
2023/08/26 02:26:56;;;;;;;13.98;11.98;;;13.70;99.90;;;;;;5076158;28;20051;-41
2023/08/26 02:29:22;;;;;;;13.60;11.20;;;13.70;99.90;;;;;;5076326;28;20500;-41
2023/08/26 02:31:47;;;;;;;13.05;10.93;;;13.60;99.90;;;;;;5076226;28;20048;-40
2023/08/26 02:34:13;;;;;;;12.30;11.02;;;13.70;99.90;;;;;;5075872;28;20709;-41
2023/08/26 02:36:39;;;;;;;12.32;10.90;;;13.60;99.90;;;;;;5076271;28;20184;-41
2023/08/26 02:39:04;;;;;;;12.80;11.02;;;13.60;99.90;;;;;;5075632;28;20488;-41
2023/08/26 02:41:30;;;;;;;14.27;10.82;;;13.60;99.90;;;;;;5076871;28;20092;-41
2023/08/26 02:43:56;;;;;;;12.88;11.13;;;13.50;99.90;;;;;;5071188;28;20042;-41
2023/08/26 02:46:21;;;;;;;12.02;10.70;;;13.50;99.90;;;;;;5053833;28;20043;-40
2023/08/26 02:48:47;;;;;;;14.30;9.95;;;13.60;99.90;;;;;;5072934;28;20039;-40
2023/08/26 02:51:13;;;;;;;10.77;9.30;;;13.50;99.90;;;;;;5062981;28;20498;-40
2023/08/26 02:53:38;;;;;;;13.75;9.57;;;13.50;99.90;;;;;;5065254;28;20484;-40
2023/08/26 02:56:04;;;;;;;11.18;9.23;;;13.60;99.90;;;;;;5076309;28;20040;-41
2023/08/26 02:58:30;;;;;;;11.63;9.10;;;13.60;99.90;;;;;;5075404;28;20035;-42
2023/08/26 03:01:00;;;;;;;12.77;9.38;;;13.60;99.90;;;;;;5075697;28;20492;-42
2023/08/26 03:03:26;;;;;;;10.70;9.60;;;13.60;99.90;;;;;;5073037;28;20542;-40
2023/08/26 03:05:57;;;;;;;13.85;9.43;;;13.70;99.90;;;;;;5074811;28;20165;-41
2023/08/26 03:08:23;;;;;;;10.20;9.05;;;13.70;99.90;;;;;;5076001;28;20048;-40
2023/08/26 03:11:00;;;;;;;11.15;9.10;;;13.70;99.90;;;;;;5076089;28;20071;-40
2023/08/26 03:13:26;;;;;;;11.73;9.60;;;13.80;99.90;;;;;;5075632;28;20143;-40
2023/08/26 03:15:51;;;;;;;11.00;9.23;;;13.70;99.90;;;;;;5049516;28;20055;-41
2023/08/26 03:18:17;;;;;;;10.65;8.52;;;13.80;99.90;;;;;;5064142;28;20375;-40
2023/08/26 03:20:42;;;;;;;11.30;8.40;;;13.80;99.90;;;;;;5046954;28;20140;-40
2023/08/26 03:23:08;;;;;;;10.10;8.45;;;13.80;99.90;;;;;;5059410;28;20135;-40
2023/08/26 03:25:40;;;;;;;10.57;8.35;;;13.80;99.90;;;;;;5075280;28;20067;-43
2023/08/26 03:28:08;;;;;;;10.60;9.02;;;13.80;99.90;;;;;;5074524;28;20040;-42
2023/08/26 03:30:35;;;;;;;11.20;8.57;;;13.80;99.90;;;;;;5075268;28;20122;-40
2023/08/26 03:33:01;;;;;;;9.45;8.52;;;13.70;99.90;;;;;;5074705;28;20086;-40
2023/08/26 03:35:27;;;;;;;11.52;8.50;;;13.80;99.90;;;;;;5074552;28;20051;-40
2023/08/26 03:37:53;;;;;;;9.43;7.82;;;13.80;99.90;;;;;;5074332;28;20382;-41
2023/08/26 03:40:22;;;;;;;11.27;8.60;;;13.80;99.90;;;;;;5075306;28;20082;-42
2023/08/26 03:42:51;;;;;;;9.52;8.63;;;13.80;99.90;;;;;;5074732;28;20569;-40
2023/08/26 03:45:17;;;;;;;10.40;8.68;;;13.80;99.90;;;;;;5048407;28;20096;-40
2023/08/26 03:47:43;;;;;;;11.27;8.82;;;13.70;99.90;;;;;;5073926;28;20549;-41
2023/08/26 03:50:09;;;;;;;10.40;8.65;;;13.70;99.90;;;;;;5061452;28;20059;-40
2023/08/26 03:52:35;;;;;;;10.32;9.15;;;13.70;99.90;;;;;;5055878;28;20149;-40
2023/08/26 03:55:01;;;;;;;10.57;8.98;;;13.80;99.90;;;;;;5075053;28;20044;-41
2023/08/26 03:57:27;;;;;;;12.45;9.27;;;13.80;99.90;;;;;;5075114;28;20112;-42
2023/08/26 03:59:52;;;;;;;9.88;8.52;;;13.80;99.90;;;;;;5073329;28;20826;-43
2023/08/26 04:02:18;;;;;;;12.60;8.60;;;13.80;99.90;;;;;;5044077;28;20087;-40
2023/08/26 04:04:44;;;;;;;9.90;8.90;;;13.80;99.90;;;;;;5054127;28;20474;-40
2023/08/26 04:07:09;;;;;;;10.68;8.88;;;13.80;99.90;;;;;;5053360;28;20049;-41
2023/08/26 04:09:35;;;;;;;9.82;8.77;;;13.80;99.90;;;;;;5052913;28;20406;-40
2023/08/26 04:12:02;;;;;;;11.18;8.93;;;13.90;99.90;;;;;;5054324;28;20050;-41
2023/08/26 04:14:27;;;;;;;11.38;8.85;;;13.90;99.90;;;;;;5046561;28;20430;-40
2023/08/26 04:16:53;;;;;;;10.57;9.48;;;13.90;99.90;;;;;;5060755;28;20541;-42
2023/08/26 04:19:18;;;;;;;11.82;8.95;;;13.90;99.90;;;;;;5050137;28;20049;-41
2023/08/26 04:21:44;;;;;;;14.45;10.73;;;13.90;99.90;;;;;;5052758;28;20040;-40
2023/08/26 04:24:10;;;;;;;12.77;9.88;;;14.00;99.90;;;;;;5054329;28;20043;-41
2023/08/26 04:26:36;;;;;;;13.32;10.75;;;13.90;99.90;;;;;;5054152;28;20033;-41
2023/08/26 04:29:01;;;;;;;11.60;10.43;;;13.90;99.90;;;;;;5054382;28;20051;-41
2023/08/26 04:31:27;;;;;;;15.27;11.20;;;13.90;99.90;;;;;;5054638;28;20477;-41
2023/08/26 04:33:53;;;;;;;11.90;10.63;;;14.00;99.90;;;;;;5053706;28;20408;-41
2023/08/26 04:36:18;;;;;;;15.50;11.88;;;13.90;99.90;;;;;;5055048;28;20036;-41
2023/08/26 04:38:45;;;;;;;17.83;12.55;;;13.90;99.90;;;;;;5056790;28;20083;-41
2023/08/26 04:41:11;;;;;;;14.55;12.13;;;14.00;99.90;;;;;;5065785;28;20367;-41
2023/08/26 04:43:37;;;;;;;14.63;12.52;;;14.00;99.90;;;;;;5076176;28;20117;-41
2023/08/26 04:46:03;;;;;;;14.40;12.13;;;14.00;99.90;;;;;;5052018;28;20410;-41
2023/08/26 04:48:28;;;;;;;18.13;12.05;;;14.10;99.90;;;;;;5077035;28;20557;-40
2023/08/26 04:50:55;;;;;;;17.00;12.10;;;14.10;99.90;;;;;;5078393;28;20039;-40
2023/08/26 04:53:21;;;;;;;19.65;12.48;;;14.10;99.90;;;;;;5066353;28;20115;-40
2023/08/26 04:55:51;;;;;;;13.98;12.48;;;14.10;99.90;;;;;;5078413;28;20042;-41
2023/08/26 04:58:17;;;;;;;13.63;12.18;;;14.10;99.90;;;;;;5078698;28;20059;-40
2023/08/26 05:00:43;;;;;;;11.88;10.38;;;14.10;99.90;;;;;;5078689;28;20458;-42
2023/08/26 05:03:09;;;;;;;11.98;9.50;;;14.10;99.90;;;;;;5063997;28;20461;-40
2023/08/26 05:05:35;;;;;;;12.00;8.88;;;14.20;99.90;;;;;;5077554;28;20032;-40
2023/08/26 05:08:01;;;;;;;8.82;7.75;;;14.10;99.90;;;;;;5077443;28;20131;-40
2023/08/26 05:10:27;;;;;;;8.40;7.05;;;14.10;99.90;;;;;;5077568;28;20097;-41
2023/08/26 05:12:52;;;;;;;5.68;5.00;;;14.10;99.90;;;;;;5077133;28;20537;-41
2023/08/26 05:15:18;;;;;;;7.10;4.95;;;14.00;99.90;;;;;;5057957;28;20037;-41
2023/08/26 05:17:44;;;;;;;8.23;5.15;;;14.00;99.90;;;;;;5070434;28;20151;-41
2023/08/26 05:20:10;;;;;;;6.60;4.93;;;13.90;99.90;;;;;;5052741;28;20051;-42
2023/08/26 05:22:35;;;;;;;7.00;3.85;;;13.90;99.90;;;;;;5067839;28;20049;-40
2023/08/26 05:25:01;;;;;;;6.40;4.00;;;13.80;99.90;;;;;;5057235;28;20097;-40
2023/08/26 05:27:27;;;;;;;6.90;3.80;;;13.80;99.90;;;;;;5055989;28;20053;-40
2023/08/26 05:29:53;;;;;;;4.53;3.75;;;13.80;99.90;;;;;;5077435;28;20054;-41
2023/08/26 05:32:19;;;;;;;4.25;3.30;;;13.80;99.90;;;;;;5076859;28;20040;-41
2023/08/26 05:34:45;;;;;;;4.85;3.42;;;13.80;99.90;;;;;;5077363;28;20065;-40
2023/08/26 05:37:10;;;;;;;4.07;3.30;;;13.80;99.90;;;;;;5075791;28;20569;-40
2023/08/26 05:39:36;;;;;;;4.38;3.67;;;13.80;99.90;;;;;;5077299;28;20047;-40
2023/08/26 05:42:03;;;;;;;4.32;3.67;;;13.80;99.90;;;;;;5076290;28;20043;-41
2023/08/26 05:44:29;;;;;;;5.03;3.53;;;13.80;99.90;;;;;;5064128;28;20045;-40
2023/08/26 05:46:55;;;;;;;6.45;3.78;;;13.80;99.90;;;;;;5062676;28;20047;-42
2023/08/26 05:49:21;;;;;;;4.35;3.38;;;13.90;99.90;;;;;;5075992;28;20056;-41
2023/08/26 05:51:46;;;;;;;4.88;3.55;;;13.80;99.90;;;;;;5065670;28;20051;-40
2023/08/26 05:54:12;;;;;;;4.60;3.45;;;13.90;99.90;;;;;;5056341;28;20414;-41
2023/08/26 05:56:38;;;;;;;4.03;3.60;;;14.00;99.90;;;;;;5055968;28;20045;-40
2023/08/26 05:59:03;;;;;;;6.05;4.57;;;14.00;99.90;;;;;;5056718;28;20086;-40
2023/08/26 06:01:29;;;;;;;6.32;4.72;;;14.10;99.90;;;;;;5054826;28;20202;-40
2023/08/26 06:03:55;;;;;;;5.65;4.85;;;14.10;99.90;;;;;;5041529;28;20466;-40
2023/08/26 06:06:20;;;;;;;5.70;4.60;;;14.20;99.90;;;;;;5069494;28;20052;-42
2023/08/26 06:08:46;;;;;;;7.10;5.45;;;14.20;99.90;;;;;;5076761;28;20044;-40
2023/08/26 06:11:12;;;;;;;8.57;6.47;;;14.20;99.90;;;;;;5059017;28;20075;-40
2023/08/26 06:13:37;;;;;;;8.02;7.18;;;14.30;99.90;;;;;;5076286;28;20130;-40
2023/08/26 06:16:03;;;;;;;12.10;8.63;;;14.30;99.90;;;;;;5049970;28;20225;-41
2023/08/26 06:18:29;;;;;;;12.02;8.80;;;14.40;99.90;;;;;;5063770;28;20627;-40
2023/08/26 06:20:54;;;;;;;12.75;8.90;;;14.40;99.90;;;;;;5049582;28;20148;-40
2023/08/26 06:23:20;;;;;;;12.00;9.45;;;14.50;99.90;;;;;;5055343;28;20052;-41
2023/08/26 06:25:57;;;;;;;11.15;10.05;;;14.60;99.90;;;;;;5056152;28;20036;-40
2023/08/26 06:28:23;;;;;;;14.77;10.45;;;14.70;99.90;;;;;;5064076;28;20615;-41
2023/08/26 06:30:49;;;;;;;12.45;10.00;;;14.70;99.90;;;;;;5076284;28;20040;-41
2023/08/26 06:33:15;;;;;;;14.07;10.27;;;14.90;99.90;;;;;;5108818;27;20048;-42
2023/08/26 06:35:46;;;;;;;13.02;10.52;;;14.90;99.90;;;;;;5076342;28;20047;-40
2023/08/26 06:38:12;;;;;;;13.40;12.02;;;15.00;99.90;;;;;;5074876;28;20058;-40
2023/08/26 06:40:37;;;;;;;15.35;12.88;;;15.00;99.90;;;;;;5076597;28;20044;-41
2023/08/26 06:43:03;;;;;;;14.75;12.82;;;15.10;99.90;;;;;;5076347;28;20119;-40
2023/08/26 06:45:30;;;;;;;16.45;13.10;;;15.20;99.90;;;;;;5049371;28;20060;-40
2023/08/26 06:47:56;;;;;;;19.08;13.80;;;15.30;99.90;;;;;;5075216;28;20571;-40
2023/08/26 06:50:22;;;;;;;18.90;15.25;;;15.40;99.90;;;;;;5076012;28;20490;-41
2023/08/26 06:52:49;;;;;;;22.33;16.55;;;15.40;99.90;;;;;;5056093;28;20505;-41
2023/08/26 06:55:15;;;;;;;19.98;17.60;;;15.50;99.90;;;;;;5057412;28;20040;-40
2023/08/26 06:57:41;;;;;;;23.75;18.33;;;15.60;99.90;;;;;;5075497;28;20044;-41
2023/08/26 07:00:11;;;;;;;21.58;19.33;;;15.90;99.90;;;;;;5075182;28;20108;-43
2023/08/26 07:02:36;;;;;;;24.42;18.77;;;16.20;99.90;;;;;;5075087;28;20044;-41
2023/08/26 07:05:02;;;;;;;22.17;17.08;;;16.80;99.90;;;;;;5075766;28;20378;-42
2023/08/26 07:07:28;;;;;;;19.38;15.80;;;17.70;99.90;;;;;;5075368;28;20445;-43
2023/08/26 07:09:53;;;;;;;17.60;15.68;;;18.50;99.90;;;;;;5073061;28;20040;-41
2023/08/26 07:12:19;;;;;;;17.40;15.65;;;19.00;99.90;;;;;;5055670;28;20124;-42
2023/08/26 07:14:45;;;;;;;17.02;14.68;;;19.10;99.90;;;;;;5047583;28;20137;-42
2023/08/26 07:17:12;;;;;;;19.67;16.10;;;19.20;99.90;;;;;;5054960;28;20052;-41
2023/08/26 07:19:37;;;;;;;16.90;15.40;;;19.30;99.90;;;;;;5045034;28;20175;-42
2023/08/26 07:22:03;;;;;;;17.88;16.00;;;19.40;99.90;;;;;;5071297;28;20430;-42
2023/08/26 07:24:29;;;;;;;18.48;16.27;;;19.50;99.90;;;;;;5071010;28;20676;-42
2023/08/26 07:26:55;;;;;;;17.98;15.95;;;19.60;99.90;;;;;;5073371;28;20048;-42
2023/08/26 07:29:21;;;;;;;17.00;15.20;;;19.60;99.90;;;;;;5074091;28;20043;-42
2023/08/26 07:31:46;;;;;;;16.52;14.88;;;19.70;99.90;;;;;;5072593;28;20410;-42
2023/08/26 07:34:12;;;;;;;18.38;16.45;;;20.00;99.90;;;;;;5054907;28;20040;-42
2023/08/26 07:36:38;;;;;;;16.77;15.05;;;20.00;99.90;;;;;;5048274;28;20052;-42
2023/08/26 07:39:03;;;;;;;17.17;15.18;;;19.80;99.90;;;;;;5047600;28;20408;-42
2023/08/26 07:41:29;;;;;;;17.95;16.02;;;20.00;99.90;;;;;;5048725;28;20048;-43
2023/08/26 07:43:55;;;;;;;16.40;14.80;;;20.20;99.90;;;;;;5052839;28;20040;-42
2023/08/26 07:46:22;;;;;;;17.08;15.23;;;20.40;99.90;;;;;;5072838;28;20387;-42
2023/08/26 07:48:49;;;;;;;18.05;16.27;;;20.30;99.90;;;;;;5068729;28;20051;-42
2023/08/26 07:51:15;;;;;;;17.17;15.57;;;20.00;99.90;;;;;;5053313;28;20051;-42
2023/08/26 07:53:41;;;;;;;18.08;16.50;;;19.80;99.90;;;;;;5050071;28;20114;-43
2023/08/26 07:56:08;;;;;;;18.88;16.20;;;19.40;99.90;;;;;;5054695;28;20048;-41
2023/08/26 07:58:34;;;;;;;19.63;16.92;;;19.20;99.90;;;;;;5054599;28;20041;-42
2023/08/26 08:00:59;;;;;;;20.20;15.73;;;19.00;99.90;;;;;;5055398;28;20048;-42
2023/08/26 08:03:25;;;;;;;18.30;15.82;;;18.70;99.90;;;;;;5056632;28;20044;-42
2023/08/26 08:05:51;;;;;;;18.30;16.65;;;18.50;99.90;;;;;;5074273;28;20047;-42
2023/08/26 08:08:16;;;;;;;17.25;15.43;;;18.60;99.90;;;;;;5075206;28;20603;-41
2023/08/26 08:10:42;;;;;;;18.08;16.48;;;18.40;99.90;;;;;;5075250;28;20048;-42
2023/08/26 08:13:09;;;;;;;18.10;15.88;;;18.40;99.90;;;;;;5076772;28;20036;-42
2023/08/26 08:15:35;;;;;;;17.60;15.93;;;18.50;99.90;;;;;;5055094;28;20072;-42
2023/08/26 08:18:02;;;;;;;17.52;15.50;;;18.50;99.90;;;;;;5070376;28;20048;-41
2023/08/26 08:20:29;;;;;;;18.77;16.80;;;18.50;99.90;;;;;;5055882;28;20327;-42
2023/08/26 08:22:54;;;;;;;18.52;16.80;;;18.60;99.90;;;;;;5065338;28;20080;-42
2023/08/26 08:25:20;;;;;;;18.88;16.92;;;18.80;99.90;;;;;;5057093;28;20128;-42
2023/08/26 08:27:46;;;;;;;18.50;16.58;;;19.00;99.90;;;;;;5057358;28;20479;-41
2023/08/26 08:30:12;;;;;;;18.13;16.23;;;19.20;99.90;;;;;;5058571;28;20075;-42
2023/08/26 08:32:37;;;;;;;16.73;15.00;;;19.50;99.90;;;;;;5057536;28;20398;-41
2023/08/26 08:35:03;;;;;;;16.65;14.90;;;19.90;99.90;;;;;;5058469;28;20043;-43
2023/08/26 08:37:30;;;;;;;16.75;14.55;;;20.00;99.90;;;;;;5057728;28;20180;-42
2023/08/26 08:39:56;;;;;;;15.52;14.02;;;20.10;99.90;;;;;;5057898;28;20060;-42
2023/08/26 08:42:22;;;;;;;14.95;12.98;;;20.20;99.90;;;;;;5057253;28;20044;-43
2023/08/26 08:44:48;;;;;;;14.75;13.30;;;20.30;99.90;;;;;;5047516;28;20061;-43
2023/08/26 08:47:15;;;;;;;16.05;13.20;;;20.10;99.90;;;;;;5055864;28;20539;-42
2023/08/26 08:49:43;;;;;;;16.60;13.05;;;19.80;99.90;;;;;;5078444;28;20694;-42
2023/08/26 08:52:10;;;;;;;15.70;12.38;;;19.80;99.90;;;;;;5066005;28;20056;-42
2023/08/26 08:54:36;;;;;;;12.85;11.45;;;19.60;99.90;;;;;;5078031;28;20044;-41
2023/08/26 08:57:03;;;;;;;13.75;9.95;;;19.60;99.90;;;;;;5074390;28;20044;-42
2023/08/26 08:59:34;;;;;;;12.13;10.00;;;19.40;99.90;;;;;;5048324;28;20045;-43
2023/08/26 09:02:00;;;;;;;12.55;10.13;;;19.40;99.90;;;;;;5056970;28;20525;-42
2023/08/26 09:04:26;;;;;;;14.73;11.50;;;19.20;99.90;;;;;;5054155;28;20738;-41
2023/08/26 09:06:52;;;;;;;18.92;14.27;;;19.00;99.90;;;;;;5056115;28;20058;-42
2023/08/26 09:09:20;;;;;;;14.02;11.02;;;18.80;99.90;;;;;;5047960;28;20041;-42
2023/08/26 09:11:51;;;;;;;13.35;10.40;;;18.50;99.90;;;;;;5055603;28;20043;-43
2023/08/26 09:14:17;;;;;;;14.10;9.50;;;18.30;99.90;;;;;;5045035;28;20443;-42
2023/08/26 09:16:43;;;;;;;11.48;7.95;;;18.20;99.90;;;;;;5038667;28;20506;-43
2023/08/26 09:19:11;;;;;;;7.57;4.47;;;18.00;99.90;;;;;;5050891;28;20052;-41
2023/08/26 09:21:46;;;;;;;6.32;3.92;;;17.90;99.90;;;;;;5052630;28;20059;-42
2023/08/26 09:24:17;;;;;;;7.93;3.70;;;17.80;99.90;;;;;;5046473;28;20057;-41
2023/08/26 09:26:58;;;;;;;7.03;4.85;;;17.70;99.90;;;;;;5055578;28;20037;-44
2023/08/26 09:29:25;;;;;;;15.00;7.60;;;17.60;99.90;;;;;;5056835;28;20072;-43
2023/08/26 09:31:55;;;;;;;10.68;7.57;;;17.50;99.90;;;;;;5055695;28;20037;-41
2023/08/26 09:34:25;;;;;;;12.55;7.78;;;17.30;99.90;;;;;;5053984;28;20044;-41
2023/08/26 09:36:51;;;;;;;11.93;4.70;;;17.20;99.90;;;;;;5036256;28;20602;-42
2023/08/26 09:39:16;;;;;;;5.72;2.60;;;17.00;99.90;;;;;;5051537;28;20045;-41
2023/08/26 09:41:46;;;;;;;9.55;2.20;;;16.70;99.90;;;;;;5044459;28;20136;-41
2023/08/26 09:44:18;;;;;;;5.75;1.65;;;16.60;99.90;;;;;;5052280;28;20406;-41
2023/08/26 09:46:44;;;;;;;4.15;1.60;;;16.30;99.90;;;;;;5059115;28;20049;-42
2023/08/26 09:49:18;;;;;;;9.65;1.83;;;16.20;99.90;;;;;;5042312;28;20048;-41
2023/08/26 09:51:49;;;;;;;2.30;1.50;;;15.90;99.90;;;;;;5056733;28;20053;-41
2023/08/26 09:54:16;;;;;;;4.28;1.80;;;15.90;99.90;;;;;;5042340;28;20155;-41
2023/08/26 09:56:42;;;;;;;8.23;2.10;;;15.80;99.90;;;;;;5060120;28;20045;-41
2023/08/26 09:59:08;;;;;;;4.70;2.50;;;15.70;99.90;;;;;;5056187;28;20408;-41
2023/08/26 10:01:35;;;;;;;3.78;2.00;;;15.70;99.90;;;;;;5068653;28;20059;-41
2023/08/26 10:04:08;;;;;;;6.35;3.08;;;15.70;99.90;;;;;;5075186;28;20163;-41
2023/08/26 10:06:54;;;;;;;5.30;3.10;;;15.80;99.90;;;;;;5074381;28;20077;-41
2023/08/26 10:09:55;;;;;;;6.05;3.25;;;15.90;99.90;;;;;;5077122;28;20048;-41
2023/08/26 10:12:30;;;;;;;6.03;4.10;;;16.10;99.90;;;;;;5052198;28;20151;-41
2023/08/26 10:15:01;;;;;;;7.32;4.88;;;16.20;99.90;;;;;;5035505;28;20340;-41
2023/08/26 10:17:30;;;;;;;5.88;5.13;;;16.40;99.90;;;;;;5032725;28;20604;-41
2023/08/26 10:19:57;;;;;;;9.27;6.20;;;16.70;99.90;;;;;;5004270;28;20052;-43
2023/08/26 10:22:24;;;;;;;7.13;5.93;;;17.10;99.90;;;;;;5032675;28;20649;-41
2023/08/26 10:24:50;;;;;;;8.68;7.30;;;17.40;99.90;;;;;;5038762;28;20061;-42
2023/08/26 10:27:16;;;;;;;8.55;7.72;;;17.80;99.90;;;;;;5039874;28;20620;-41
2023/08/26 10:29:43;;;;;;;12.70;8.85;;;18.10;99.90;;;;;;5039502;28;20130;-42
2023/08/26 10:32:19;;;;;;;11.45;8.77;;;18.50;99.90;;;;;;5035724;28;20117;-42
2023/08/26 10:34:59;;;;;;;12.05;8.65;;;18.80;99.90;;;;;;5048453;28;20083;-42
2023/08/26 10:37:31;;;;;;;10.25;8.85;;;19.20;99.90;;;;;;5032805;28;20045;-42
2023/08/26 10:40:08;;;;;;;10.33;9.30;;;19.30;99.90;;;;;;5045510;28;20049;-41
2023/08/26 10:42:36;;;;;;;10.73;9.65;;;19.50;99.90;;;;;;5037267;28;20575;-42
2023/08/26 10:45:05;;;;;;;11.18;8.15;;;19.60;99.90;;;;;;5033060;28;20063;-42
2023/08/26 10:47:38;;;;;;;12.95;9.68;;;19.60;99.90;;;;;;5056427;28;20052;-42
2023/08/26 10:50:20;;;;;;;10.90;9.38;;;19.50;99.90;;;;;;5070746;28;20549;-42
2023/08/26 10:53:13;;;;;;;9.88;8.20;;;19.50;99.90;;;;;;5075543;28;20516;-41
2023/08/26 10:55:39;;;;;;;;;;;19.60;99.90;;;;;;5050274;28;20252;-42
2023/08/26 10:58:12;;;;;;;8.02;7.07;;;19.90;99.90;;;;;;5055626;28;19997;-42
2023/08/26 11:00:44;;;;;;;7.95;6.15;;;20.00;99.90;;;;;;5068706;28;20114;-41
2023/08/26 11:03:12;;;;;;;7.88;7.07;;;19.80;99.90;;;;;;5067054;28;20528;-42
2023/08/26 11:05:42;;;;;;;8.95;7.60;;;19.90;99.90;;;;;;5053404;28;20051;-41
2023/08/26 11:08:08;;;;;;;7.57;6.90;;;19.90;99.90;;;;;;5056645;28;20063;-42
2023/08/26 11:10:36;;;;;;;6.18;4.30;;;19.90;99.90;;;;;;5055682;28;20821;-42
2023/08/26 11:13:03;;;;;;;8.82;4.93;;;20.10;99.90;;;;;;5054622;28;20045;-42
2023/08/26 11:15:34;;;;;;;7.45;4.35;;;20.00;99.90;;;;;;5051228;28;20056;-42
2023/08/26 11:18:00;;;;;;;3.17;2.45;;;20.00;99.90;;;;;;5051574;28;20432;-42
2023/08/26 11:20:28;;;;;;;5.07;2.35;;;20.10;99.90;;;;;;5054590;28;20076;-42
2023/08/26 11:22:54;;;;;;;3.70;2.50;;;20.20;99.90;;;;;;5052614;28;20143;-42
2023/08/26 11:25:20;;;;;;;5.38;2.90;;;20.20;99.90;;;;;;5053879;28;20084;-42
2023/08/26 11:27:45;;;;;;;5.18;2.65;;;20.20;99.90;;;;;;5053317;28;20757;-44
2023/08/26 11:30:11;;;;;;;3.33;2.50;;;20.20;99.90;;;;;;5055318;28;20055;-42
2023/08/26 11:32:38;;;;;;;7.03;2.92;;;20.00;99.90;;;;;;5054913;28;20445;-42
2023/08/26 11:35:09;;;;;;;3.58;2.70;;;20.00;99.90;;;;;;5053759;28;20202;-42
2023/08/26 11:37:43;;;;;;;3.58;2.30;;;20.30;99.90;;;;;;5058642;28;20044;-42
2023/08/26 11:40:12;;;;;;;4.03;1.60;;;20.40;99.90;;;;;;5075356;28;20051;-43
2023/08/26 11:42:38;;;;;;;2.13;1.63;;;20.60;99.90;;;;;;5074742;28;20047;-41
2023/08/26 11:45:12;;;;;;;4.82;2.10;;;20.80;99.90;;;;;;5053082;28;20391;-42
2023/08/26 11:47:39;;;;;;;2.58;1.95;;;20.90;99.90;;;;;;5074847;28;20052;-42
2023/08/26 11:50:06;;;;;;;2.78;1.70;;;21.00;99.90;;;;;;5079033;28;20040;-42
2023/08/26 11:52:36;;;;;;;3.58;1.70;;;20.90;99.90;;;;;;5056559;28;20703;-42
2023/08/26 11:55:04;;;;;;;2.20;1.40;;;20.70;99.90;;;;;;5072853;28;20067;-43
2023/08/26 11:57:39;;;;;;;4.40;1.83;;;20.50;99.90;;;;;;5048928;28;20036;-42
2023/08/26 12:00:16;;;;;;;4.28;2.35;;;20.10;99.90;;;;;;5051151;28;20564;-42
2023/08/26 12:02:46;;;;;;;3.28;2.63;;;19.80;99.90;;;;;;5044695;28;20089;-42
2023/08/26 12:05:14;;;;;;;3.53;3.22;;;19.60;99.90;;;;;;5054947;28;20542;-42
2023/08/26 12:07:50;;;;;;;4.57;4.03;;;19.40;99.90;;;;;;5051386;28;20049;-41
2023/08/26 12:10:18;;;;;;;6.32;5.22;;;19.60;99.90;;;;;;5057352;28;20628;-42
2023/08/26 12:12:45;;;;;;;6.85;4.95;;;19.90;99.90;;;;;;5054760;28;20628;-42
2023/08/26 12:15:13;;;;;;;6.15;4.88;;;20.10;99.90;;;;;;5043181;28;20518;-42
2023/08/26 12:17:46;;;;;;;5.82;5.32;;;20.20;99.90;;;;;;5050258;28;20075;-42
2023/08/26 12:20:29;;;;;;;7.30;5.00;;;20.40;99.90;;;;;;5053790;28;20159;-42
2023/08/26 12:22:59;;;;;;;4.97;4.25;;;20.30;99.90;;;;;;5054023;28;20048;-43
2023/08/26 12:25:30;;;;;;;4.32;3.92;;;20.40;99.90;;;;;;5052914;28;20044;-44
2023/08/26 12:28:18;;;;;;;6.47;4.30;;;20.60;99.90;;;;;;5054781;28;20045;-42
2023/08/26 12:30:47;;;;;;;4.68;4.18;;;20.60;99.90;;;;;;5053781;28;20047;-43
2023/08/26 12:33:14;;;;;;;6.22;3.78;;;20.80;99.90;;;;;;5053660;28;20502;-42
2023/08/26 12:35:39;;;;;;;5.80;4.28;;;20.60;99.90;;;;;;5050536;28;20211;-42
2023/08/26 12:38:06;;;;;;;4.45;3.85;;;20.40;99.90;;;;;;5054991;28;20047;-43